Impacts TAF Board INFO
FOR SITUATIONAL AWARENESS. NOT TO BE USED FOR FLIGHT PLANNING PURPOSES.
IDs:

KMDW - Chicago/Midway Intl, IL, US

Issued at 2105 UTC 25 Mar 2017
Updated at 2135 UTC 25 Mar 2017
Potential Impact None Slight Moderate High
Time2053Z 25/22Z 25/23Z 26/00Z 26/01Z 26/02Z 26/03Z 26/04Z 26/05Z 26/06Z 26/07Z 26/08Z 26/09Z 26/10Z
Type OBS PRVL PRVL PRVL PRVL PRVL PRVL PRVL PRVL PRVL PRVL PRVL PRVL PRVL
VIS 5 4 4 4 4 4 2 2 2 2 2 2 2 2
CIG 6 7 7 7 7 7 4 4 4 4 4 4 4 4
Cover OVC OVC OVC OVC OVC OVC OVC OVC OVC OVC OVC OVC OVC OVC
FltCat IFR IFR IFR IFR IFR IFR LIFR LIFR LIFR LIFR LIFR LIFR LIFR LIFR
WX BR -SHRA BR -SHRA BR -SHRA BR -SHRA BR -SHRA BR -RA -DZ BR -RA -DZ BR -RA -DZ BR -RA -DZ BR -RA -DZ BR -RA -DZ BR -RA -DZ BR -RA -DZ BR
WDir 30 70 70 70 70 70 90 90 90 90 90 90 90 90
WSpd 10 11 11 11 11 11 9 9 9 9 9 9 9 9
WGst -- -- -- -- -- -- -- -- -- -- -- -- -- --

Raw TAF
KMDW 252105Z 2521/2618 03010KT 5SM -SHRA BR BKN006 OVC060
  FM252200 07011KT 4SM -SHRA BR OVC007
  FM260300 09009KT 2SM -RADZ BR OVC004
  FM261500 16009KT 3SM -RADZ BR OVC008


Raw METAR
KMDW 252053Z 03010KT 5SM BR BKN006 OVC060 09/08 A2998 RMK AO2 RAB33E49 SLP158 P0000 60000 T00890078 56013 $
KMDW 251953Z 03009G15KT 5SM BR OVC005 09/08 A2999 RMK AO2 SLP160 T00890078 $
KMDW 251853Z 02007KT 4SM BR OVC004 09/08 A3000 RMK AO2 SLP163 T00890078 $

METAR Board
Radar Display
Forecast Discussion

FOR SITUATIONAL AWARENESS. NOT TO BE USED FOR FLIGHT PLANNING PURPOSES.

Page loaded:  21:35 UTC  |   02:35 PM Pacific  |   03:35 PM Mountain  |   04:35 PM Central  |   05:35 PM Eastern

 

ADVISORIES

FORECASTS

FORECASTS

OBSERVATIONS

USER TOOLS

ABOUT US